createdAt,value
2023-04-01T00:02:02.751Z,7.45
2023-04-01T00:07:24.631Z,10.75
2023-04-01T00:12:52.695Z,6.28
2023-04-01T00:18:15.039Z,5.35
2023-04-01T00:23:37.442Z,5.25
2023-04-01T00:29:00.225Z,6.22
2023-04-01T00:34:22.385Z,15.95
2023-04-01T00:39:44.190Z,11.85
2023-04-01T00:45:45.839Z,12.45
2023-04-01T00:51:11.175Z,8.32
2023-04-01T00:56:39.478Z,17.10
2023-04-01T01:02:03.398Z,17.27
2023-04-01T01:07:52.646Z,13.90
2023-04-01T01:13:27.398Z,10.75
2023-04-01T01:19:07.485Z,10.15
2023-04-01T01:24:50.786Z,10.45
2023-04-01T01:30:37.242Z,9.50
2023-04-01T01:36:03.335Z,9.32
2023-04-01T01:41:27.910Z,15.95
2023-04-01T01:46:51.168Z,6.55
2023-04-01T01:52:14.322Z,5.63
2023-04-01T01:57:40.518Z,9.15
2023-04-01T02:03:02.705Z,11.52
2023-04-01T02:09:04.709Z,4.18
2023-04-01T02:14:32.367Z,6.97
2023-04-01T02:20:28.965Z,4.82
2023-04-01T02:25:52.270Z,8.03
2023-04-01T02:31:16.237Z,8.85
2023-04-01T02:36:39.313Z,5.82
2023-04-01T02:42:01.570Z,9.82
2023-04-01T02:47:23.394Z,5.72
2023-04-01T02:52:45.238Z,4.95
2023-04-01T02:58:07.383Z,3.63
2023-04-01T03:03:29.181Z,4.03
2023-04-01T03:08:51.280Z,4.95
2023-04-01T03:14:13.381Z,10.05
2023-04-01T03:19:35.393Z,2.35
2023-04-01T03:24:57.131Z,3.88
2023-04-01T03:30:19.094Z,2.38
2023-04-01T03:35:41.114Z,3.58
2023-04-01T03:41:03.074Z,1.85
2023-04-01T03:46:24.974Z,1.52
2023-04-01T03:51:46.868Z,3.67
2023-04-01T03:57:08.724Z,2.50
2023-04-01T04:02:30.730Z,2.97
2023-04-01T04:07:53.547Z,0.98
2023-04-01T04:13:15.789Z,2.63
2023-04-01T04:18:38.347Z,2.92
2023-04-01T04:24:01.585Z,4.28
2023-04-01T04:29:24.320Z,2.58
2023-04-01T04:34:46.109Z,3.17
2023-04-01T04:40:08.896Z,3.30
2023-04-01T04:45:31.642Z,2.47
2023-04-01T04:50:53.704Z,2.63
2023-04-01T04:56:20.668Z,1.35
2023-04-01T05:01:42.550Z,1.00
2023-04-01T05:07:04.493Z,1.15
2023-04-01T05:12:26.404Z,1.30
2023-04-01T05:17:48.621Z,1.27
2023-04-01T05:23:10.532Z,3.63
2023-04-01T05:28:32.366Z,1.20
2023-04-01T05:33:55.472Z,1.23
2023-04-01T05:39:17.319Z,2.22
2023-04-01T05:44:39.094Z,4.43
2023-04-01T05:50:01.370Z,4.45
2023-04-01T05:55:23.225Z,15.57
2023-04-01T06:00:46.486Z,12.13
2023-04-01T06:06:26.589Z,7.10
2023-04-01T06:12:07.260Z,4.93
2023-04-01T06:18:07.937Z,12.20
2023-04-01T06:24:04.176Z,9.93
2023-04-01T06:29:46.214Z,5.95
2023-04-01T06:35:22.149Z,2.72
2023-04-01T06:41:04.071Z,7.63
2023-04-01T06:46:55.179Z,12.38
2023-04-01T06:52:53.118Z,9.15
2023-04-01T06:58:43.675Z,4.97
2023-04-01T07:04:34.356Z,8.10
2023-04-01T07:10:01.081Z,4.63
2023-04-01T07:15:38.539Z,8.75
2023-04-01T07:21:02.202Z,3.72
2023-04-01T07:26:26.087Z,6.25
2023-04-01T07:31:53.703Z,4.53
2023-04-01T07:37:29.595Z,3.75
2023-04-01T07:43:00.314Z,5.35
2023-04-01T07:48:36.746Z,8.38
2023-04-01T07:54:04.274Z,3.97
2023-04-01T07:59:38.766Z,13.85
2023-04-01T08:05:29.679Z,6.00
2023-04-01T08:10:57.749Z,4.72
2023-04-01T08:16:34.771Z,8.45
2023-04-01T08:22:00.007Z,13.95
2023-04-01T08:27:24.723Z,5.40
2023-04-01T08:32:57.219Z,10.77
2023-04-01T08:38:37.389Z,7.50
2023-04-01T08:44:11.921Z,9.48
2023-04-01T08:49:45.720Z,12.02
2023-04-01T08:55:52.441Z,12.50
2023-04-01T09:01:36.137Z,16.85
2023-04-01T09:07:33.190Z,10.07
2023-04-01T09:13:43.330Z,11.73
2023-04-01T09:19:38.512Z,13.13
2023-04-01T09:25:16.639Z,5.97
2023-04-01T09:31:13.478Z,12.65
2023-04-01T09:36:35.750Z,11.27
2023-04-01T09:42:16.377Z,9.98
2023-04-01T09:47:51.422Z,7.05
2023-04-01T09:53:18.126Z,4.65
2023-04-01T09:59:03.288Z,13.85
2023-04-01T10:04:37.219Z,19.60
2023-04-01T10:10:17.426Z,17.63
2023-04-01T10:16:03.532Z,14.85
2023-04-01T10:21:34.216Z,6.33
2023-04-01T10:27:01.746Z,6.35
2023-04-01T10:32:58.015Z,10.90
2023-04-01T10:38:46.972Z,7.83
2023-04-01T10:44:38.246Z,11.35
2023-04-01T10:50:15.232Z,7.63
2023-04-01T10:55:46.725Z,11.75
2023-04-01T11:01:14.504Z,10.30
2023-04-01T11:07:10.274Z,17.52
2023-04-01T11:12:47.240Z,13.20
2023-04-01T11:18:36.426Z,11.15
2023-04-01T11:24:08.615Z,6.25
2023-04-01T11:29:49.781Z,5.22
2023-04-01T11:35:46.763Z,9.07
2023-04-01T11:41:26.707Z,12.95
2023-04-01T11:47:01.995Z,3.47
2023-04-01T11:52:53.289Z,5.07
2023-04-01T11:58:30.342Z,12.43
2023-04-01T12:04:00.337Z,12.65
2023-04-01T12:09:43.346Z,11.80
2023-04-01T12:15:32.579Z,9.98
2023-04-01T12:21:08.293Z,12.40
2023-04-01T12:26:42.198Z,14.57
2023-04-01T12:32:19.013Z,11.50
2023-04-01T12:37:52.358Z,14.90
2023-04-01T12:43:33.361Z,15.68
2023-04-01T12:49:13.182Z,7.30
2023-04-01T12:54:56.012Z,9.20
2023-04-01T13:00:26.994Z,11.25
2023-04-01T13:06:07.066Z,16.75
2023-04-01T13:11:40.766Z,9.65
2023-04-01T13:17:31.161Z,11.13
2023-04-01T13:23:18.982Z,9.40
2023-04-01T13:29:02.817Z,12.60
2023-04-01T13:34:49.302Z,6.80
2023-04-01T13:40:46.837Z,7.93
2023-04-01T13:46:43.168Z,14.55
2023-04-01T13:52:32.529Z,10.73
2023-04-01T13:58:08.575Z,12.13
2023-04-01T14:09:46.172Z,9.40
2023-04-01T14:15:46.633Z,15.77
2023-04-01T14:21:27.328Z,13.77
2023-04-01T14:27:10.821Z,23.40
2023-04-01T14:32:38.587Z,18.73
2023-04-01T14:38:34.269Z,35.00
2023-04-01T14:44:01.854Z,31.85
2023-04-01T14:49:43.322Z,31.90
2023-04-01T14:55:54.542Z,33.50
2023-04-01T15:01:49.278Z,26.20
2023-04-01T15:07:21.813Z,25.73
2023-04-01T15:13:05.605Z,20.10
2023-04-01T15:18:33.428Z,24.80
2023-04-01T15:23:58.133Z,34.33
2023-04-01T15:29:19.914Z,32.93
2023-04-01T15:35:02.670Z,25.38
2023-04-01T15:40:25.174Z,24.30
2023-04-01T15:46:24.449Z,21.45
2023-04-01T15:52:09.135Z,32.97
2023-04-01T15:57:40.601Z,16.52
2023-04-01T16:03:18.090Z,16.25
2023-04-01T16:09:22.036Z,21.95
2023-04-01T16:15:00.382Z,16.77
2023-04-01T16:20:25.662Z,12.27
2023-04-01T16:25:59.065Z,18.67
2023-04-01T16:31:37.171Z,11.95
2023-04-01T16:37:30.081Z,11.52
2023-04-01T16:43:06.118Z,14.40
2023-04-01T16:54:20.093Z,9.07
2023-04-01T16:59:54.376Z,9.88
2023-04-01T17:05:16.256Z,8.23
2023-04-01T17:11:02.530Z,14.73
2023-04-01T17:16:39.564Z,13.18
2023-04-01T17:22:13.342Z,12.52
2023-04-01T17:27:59.393Z,15.15
2023-04-01T17:33:41.572Z,10.23
2023-04-01T17:39:15.162Z,13.35
2023-04-01T17:44:42.613Z,20.15
2023-04-01T17:50:19.500Z,16.55
2023-04-01T17:56:08.300Z,10.43
2023-04-01T18:01:39.485Z,13.88
2023-04-01T18:07:20.462Z,17.60
2023-04-01T18:13:01.440Z,18.02
2023-04-01T18:18:31.874Z,20.90
2023-04-01T18:24:02.789Z,19.27
2023-04-01T18:29:29.455Z,15.18
2023-04-01T18:35:20.912Z,15.88
2023-04-01T18:41:07.451Z,29.65
2023-04-01T18:52:35.972Z,28.00
2023-04-01T18:58:34.455Z,37.53
2023-04-01T19:04:20.884Z,27.30
2023-04-01T19:15:36.737Z,19.97
2023-04-01T19:21:40.799Z,34.90
2023-04-01T19:27:19.458Z,21.25
2023-04-01T19:32:47.032Z,14.95
2023-04-01T19:38:27.293Z,29.70
2023-04-01T19:44:01.002Z,20.67
2023-04-01T19:49:28.335Z,21.52
2023-04-01T19:55:02.560Z,13.48
2023-04-01T20:00:40.701Z,14.30
2023-04-01T20:06:18.137Z,12.85
2023-04-01T20:12:15.188Z,12.82
2023-04-01T20:23:46.374Z,11.35
2023-04-01T20:29:37.788Z,7.57
2023-04-01T20:35:14.608Z,9.38
2023-04-01T20:40:48.160Z,11.25
2023-04-01T20:46:19.122Z,6.53
2023-04-01T20:52:04.415Z,13.95
2023-04-01T20:57:52.704Z,8.50
2023-04-01T21:03:21.369Z,10.27
2023-04-01T21:09:16.950Z,8.32
2023-04-01T21:15:00.124Z,5.20
2023-04-01T21:20:48.478Z,8.75
2023-04-01T21:26:36.444Z,9.68
2023-04-01T21:32:27.567Z,3.15
2023-04-01T21:38:26.998Z,5.10
2023-04-01T21:44:00.573Z,3.22
2023-04-01T21:49:25.674Z,3.28
2023-04-01T21:55:23.975Z,6.63
2023-04-01T22:01:06.837Z,3.42
2023-04-01T22:06:31.445Z,1.58
2023-04-01T22:12:08.304Z,3.57
2023-04-01T22:17:37.987Z,8.75
2023-04-01T22:23:44.680Z,3.38
2023-04-01T22:29:07.080Z,3.38
2023-04-01T22:34:57.051Z,2.13
2023-04-01T22:40:27.448Z,2.28
2023-04-01T22:46:11.805Z,4.22
2023-04-01T22:51:46.212Z,3.30
2023-04-01T22:57:45.834Z,1.67
2023-04-01T23:03:30.178Z,2.20
2023-04-01T23:09:02.432Z,1.95
2023-04-01T23:14:27.959Z,1.30
2023-04-01T23:25:26.480Z,2.72
2023-04-01T23:30:50.580Z,1.30
2023-04-01T23:36:15.624Z,1.23
2023-04-01T23:41:37.532Z,3.60
2023-04-01T23:47:01.676Z,0.93
2023-04-01T23:52:36.137Z,1.00
2023-04-01T23:58:24.292Z,1.95
